sensor_id;sensor_type;location;lat;lon;timestamp;P1;durP1;ratioP1;P2;durP2;ratioP2
21624;SDS011;10974;51.034;3.744;2023-04-02T04:23:15;8.60;;;7.70;;
21624;SDS011;10974;51.034;3.744;2023-04-02T04:25:42;10.50;;;7.50;;
21624;SDS011;10974;51.034;3.744;2023-04-02T04:28:23;10.80;;;8.83;;
21624;SDS011;10974;51.034;3.744;2023-04-02T04:30:57;10.90;;;8.70;;
21624;SDS011;10974;51.034;3.744;2023-04-02T04:33:26;10.20;;;7.73;;
21624;SDS011;10974;51.034;3.744;2023-04-02T04:35:58;15.70;;;9.10;;
21624;SDS011;10974;51.034;3.744;2023-04-02T04:38:32;9.80;;;8.00;;
21624;SDS011;10974;51.034;3.744;2023-04-02T04:41:10;9.30;;;7.30;;
21624;SDS011;10974;51.034;3.744;2023-04-02T04:46:16;8.77;;;7.43;;
21624;SDS011;10974;51.034;3.744;2023-04-02T04:53:46;11.43;;;7.33;;
21624;SDS011;10974;51.034;3.744;2023-04-02T04:56:12;10.80;;;7.20;;
21624;SDS011;10974;51.034;3.744;2023-04-02T05:01:39;11.00;;;7.80;;
21624;SDS011;10974;51.034;3.744;2023-04-02T05:06:40;13.90;;;8.20;;
21624;SDS011;10974;51.034;3.744;2023-04-02T05:12:15;14.37;;;7.83;;
21624;SDS011;10974;51.034;3.744;2023-04-02T05:17:33;9.53;;;7.20;;
21624;SDS011;10974;51.034;3.744;2023-04-02T05:20:02;8.17;;;7.27;;
21624;SDS011;10974;51.034;3.744;2023-04-02T05:22:35;8.80;;;6.83;;
21624;SDS011;10974;51.034;3.744;2023-04-02T05:25:14;13.97;;;7.23;;
21624;SDS011;10974;51.034;3.744;2023-04-02T05:33:02;10.77;;;6.67;;
21624;SDS011;10974;51.034;3.744;2023-04-02T05:35:35;12.30;;;7.73;;
21624;SDS011;10974;51.034;3.744;2023-04-02T05:38:03;8.73;;;7.07;;
21624;SDS011;10974;51.034;3.744;2023-04-02T05:40:35;9.60;;;7.63;;
21624;SDS011;10974;51.034;3.744;2023-04-02T05:43:02;8.70;;;6.50;;
21624;SDS011;10974;51.034;3.744;2023-04-02T05:45:35;8.93;;;6.50;;
21624;SDS011;10974;51.034;3.744;2023-04-02T05:48:25;8.17;;;6.57;;
21624;SDS011;10974;51.034;3.744;2023-04-02T05:50:50;8.80;;;7.80;;
21624;SDS011;10974;51.034;3.744;2023-04-02T05:53:18;8.37;;;6.63;;
21624;SDS011;10974;51.034;3.744;2023-04-02T05:55:59;12.03;;;8.00;;
21624;SDS011;10974;51.034;3.744;2023-04-02T05:58:28;8.77;;;7.23;;
21624;SDS011;10974;51.034;3.744;2023-04-02T06:00:59;8.17;;;6.87;;
21624;SDS011;10974;51.034;3.744;2023-04-02T06:03:37;7.10;;;6.20;;
21624;SDS011;10974;51.034;3.744;2023-04-02T06:06:10;9.20;;;6.50;;
21624;SDS011;10974;51.034;3.744;2023-04-02T06:08:39;9.80;;;6.83;;
21624;SDS011;10974;51.034;3.744;2023-04-02T06:11:08;9.73;;;6.80;;
21624;SDS011;10974;51.034;3.744;2023-04-02T06:13:36;12.70;;;6.27;;
21624;SDS011;10974;51.034;3.744;2023-04-02T06:16:02;7.30;;;6.37;;
21624;SDS011;10974;51.034;3.744;2023-04-02T06:18:32;7.20;;;5.93;;
21624;SDS011;10974;51.034;3.744;2023-04-02T06:21:00;9.93;;;7.20;;
21624;SDS011;10974;51.034;3.744;2023-04-02T06:23:30;7.80;;;6.80;;
21624;SDS011;10974;51.034;3.744;2023-04-02T06:25:59;8.50;;;7.27;;
21624;SDS011;10974;51.034;3.744;2023-04-02T06:28:28;9.40;;;7.07;;
21624;SDS011;10974;51.034;3.744;2023-04-02T06:30:57;11.60;;;8.60;;
21624;SDS011;10974;51.034;3.744;2023-04-02T06:33:25;10.43;;;7.23;;
21624;SDS011;10974;51.034;3.744;2023-04-02T06:35:51;13.40;;;8.60;;
21624;SDS011;10974;51.034;3.744;2023-04-02T06:38:21;159.37;;;11.10;;
21624;SDS011;10974;51.034;3.744;2023-04-02T06:43:37;7.37;;;6.53;;
21624;SDS011;10974;51.034;3.744;2023-04-02T06:46:09;8.03;;;5.93;;
21624;SDS011;10974;51.034;3.744;2023-04-02T06:48:38;9.07;;;6.57;;
21624;SDS011;10974;51.034;3.744;2023-04-02T06:51:06;8.30;;;5.93;;
21624;SDS011;10974;51.034;3.744;2023-04-02T06:56:02;10.10;;;6.00;;
21624;SDS011;10974;51.034;3.744;2023-04-02T06:58:28;5.60;;;4.83;;
21624;SDS011;10974;51.034;3.744;2023-04-02T07:00:54;8.77;;;6.20;;
21624;SDS011;10974;51.034;3.744;2023-04-02T07:03:28;6.20;;;5.00;;
21624;SDS011;10974;51.034;3.744;2023-04-02T07:05:55;10.17;;;5.90;;
21624;SDS011;10974;51.034;3.744;2023-04-02T07:08:21;301.37;;;21.47;;
21624;SDS011;10974;51.034;3.744;2023-04-02T07:10:48;8.10;;;5.80;;
21624;SDS011;10974;51.034;3.744;2023-04-02T07:13:14;7.83;;;6.20;;
21624;SDS011;10974;51.034;3.744;2023-04-02T07:15:41;7.50;;;5.93;;
21624;SDS011;10974;51.034;3.744;2023-04-02T07:18:12;9.03;;;6.23;;
21624;SDS011;10974;51.034;3.744;2023-04-02T07:20:42;10.33;;;6.50;;
21624;SDS011;10974;51.034;3.744;2023-04-02T07:23:08;13.67;;;6.90;;
21624;SDS011;10974;51.034;3.744;2023-04-02T07:25:34;14.10;;;7.00;;
21624;SDS011;10974;51.034;3.744;2023-04-02T07:28:00;9.90;;;6.33;;
21624;SDS011;10974;51.034;3.744;2023-04-02T07:30:26;10.70;;;5.87;;
21624;SDS011;10974;51.034;3.744;2023-04-02T07:32:52;7.20;;;5.53;;
21624;SDS011;10974;51.034;3.744;2023-04-02T07:35:18;6.37;;;5.27;;
21624;SDS011;10974;51.034;3.744;2023-04-02T07:37:44;6.03;;;5.23;;
21624;SDS011;10974;51.034;3.744;2023-04-02T07:40:19;5.30;;;4.80;;
21624;SDS011;10974;51.034;3.744;2023-04-02T07:42:48;7.30;;;5.37;;
21624;SDS011;10974;51.034;3.744;2023-04-02T07:45:14;7.60;;;5.20;;
21624;SDS011;10974;51.034;3.744;2023-04-02T07:47:40;8.20;;;5.23;;
21624;SDS011;10974;51.034;3.744;2023-04-02T07:50:07;8.90;;;6.10;;
21624;SDS011;10974;51.034;3.744;2023-04-02T07:52:37;6.97;;;5.20;;
21624;SDS011;10974;51.034;3.744;2023-04-02T07:55:03;6.67;;;5.53;;
21624;SDS011;10974;51.034;3.744;2023-04-02T07:57:29;7.60;;;5.70;;
21624;SDS011;10974;51.034;3.744;2023-04-02T07:59:55;6.20;;;5.00;;
21624;SDS011;10974;51.034;3.744;2023-04-02T08:02:21;5.80;;;4.70;;
21624;SDS011;10974;51.034;3.744;2023-04-02T08:04:48;5.57;;;5.07;;
21624;SDS011;10974;51.034;3.744;2023-04-02T08:07:15;7.67;;;5.47;;
21624;SDS011;10974;51.034;3.744;2023-04-02T08:09:41;7.10;;;5.27;;
21624;SDS011;10974;51.034;3.744;2023-04-02T08:12:08;9.73;;;6.10;;
21624;SDS011;10974;51.034;3.744;2023-04-02T08:14:36;6.97;;;6.00;;
21624;SDS011;10974;51.034;3.744;2023-04-02T08:17:02;7.00;;;5.40;;
21624;SDS011;10974;51.034;3.744;2023-04-02T08:19:28;6.93;;;5.60;;
21624;SDS011;10974;51.034;3.744;2023-04-02T08:21:54;10.20;;;5.37;;
21624;SDS011;10974;51.034;3.744;2023-04-02T08:24:21;5.50;;;4.90;;
21624;SDS011;10974;51.034;3.744;2023-04-02T08:26:48;8.30;;;5.30;;
21624;SDS011;10974;51.034;3.744;2023-04-02T08:29:15;6.80;;;5.17;;
21624;SDS011;10974;51.034;3.744;2023-04-02T08:31:41;7.50;;;5.73;;
21624;SDS011;10974;51.034;3.744;2023-04-02T08:34:07;14.97;;;8.40;;
21624;SDS011;10974;51.034;3.744;2023-04-02T08:36:34;8.07;;;7.20;;
21624;SDS011;10974;51.034;3.744;2023-04-02T08:39:01;6.57;;;5.33;;
21624;SDS011;10974;51.034;3.744;2023-04-02T08:41:28;6.03;;;5.43;;
21624;SDS011;10974;51.034;3.744;2023-04-02T08:46:29;7.23;;;5.37;;
21624;SDS011;10974;51.034;3.744;2023-04-02T08:48:58;11.70;;;6.20;;
21624;SDS011;10974;51.034;3.744;2023-04-02T08:51:26;7.10;;;5.17;;
21624;SDS011;10974;51.034;3.744;2023-04-02T08:53:54;5.30;;;4.60;;
21624;SDS011;10974;51.034;3.744;2023-04-02T08:56:35;7.43;;;5.47;;
21624;SDS011;10974;51.034;3.744;2023-04-02T08:59:06;417.20;;;16.37;;
21624;SDS011;10974;51.034;3.744;2023-04-02T09:04:02;7.00;;;5.00;;
21624;SDS011;10974;51.034;3.744;2023-04-02T09:06:30;6.23;;;5.17;;
21624;SDS011;10974;51.034;3.744;2023-04-02T09:08:58;7.23;;;5.13;;
21624;SDS011;10974;51.034;3.744;2023-04-02T09:11:40;6.13;;;4.57;;
21624;SDS011;10974;51.034;3.744;2023-04-02T09:14:15;7.80;;;5.37;;
21624;SDS011;10974;51.034;3.744;2023-04-02T09:19:13;6.40;;;4.73;;
21624;SDS011;10974;51.034;3.744;2023-04-02T09:21:40;5.00;;;4.50;;
21624;SDS011;10974;51.034;3.744;2023-04-02T09:24:10;6.57;;;4.60;;
21624;SDS011;10974;51.034;3.744;2023-04-02T09:26:40;5.53;;;4.60;;
21624;SDS011;10974;51.034;3.744;2023-04-02T09:31:55;6.97;;;4.90;;
21624;SDS011;10974;51.034;3.744;2023-04-02T09:34:34;5.33;;;4.57;;
21624;SDS011;10974;51.034;3.744;2023-04-02T09:37:08;7.63;;;3.90;;
21624;SDS011;10974;51.034;3.744;2023-04-02T09:39:38;5.10;;;4.60;;
21624;SDS011;10974;51.034;3.744;2023-04-02T09:42:05;7.23;;;4.27;;
21624;SDS011;10974;51.034;3.744;2023-04-02T09:44:32;8.40;;;6.17;;
21624;SDS011;10974;51.034;3.744;2023-04-02T09:47:02;6.63;;;4.50;;
21624;SDS011;10974;51.034;3.744;2023-04-02T09:49:30;5.73;;;4.20;;
21624;SDS011;10974;51.034;3.744;2023-04-02T09:54:31;7.70;;;4.40;;
21624;SDS011;10974;51.034;3.744;2023-04-02T09:56:58;8.30;;;5.67;;
21624;SDS011;10974;51.034;3.744;2023-04-02T09:59:25;4.97;;;4.30;;
21624;SDS011;10974;51.034;3.744;2023-04-02T10:06:55;5.13;;;4.40;;
21624;SDS011;10974;51.034;3.744;2023-04-02T10:09:27;5.03;;;4.47;;
21624;SDS011;10974;51.034;3.744;2023-04-02T10:11:54;8.37;;;4.63;;
21624;SDS011;10974;51.034;3.744;2023-04-02T10:14:22;5.47;;;3.90;;
21624;SDS011;10974;51.034;3.744;2023-04-02T10:16:52;7.20;;;4.50;;
21624;SDS011;10974;51.034;3.744;2023-04-02T10:21:50;5.10;;;4.30;;
21624;SDS011;10974;51.034;3.744;2023-04-02T10:24:17;8.30;;;4.77;;
21624;SDS011;10974;51.034;3.744;2023-04-02T10:35:03;9.53;;;5.00;;
21624;SDS011;10974;51.034;3.744;2023-04-02T10:37:13;8.83;;;4.90;;
21624;SDS011;10974;51.034;3.744;2023-04-02T10:39:43;5.23;;;4.20;;
21624;SDS011;10974;51.034;3.744;2023-04-02T10:47:34;5.73;;;4.80;;
21624;SDS011;10974;51.034;3.744;2023-04-02T10:53:16;6.30;;;4.37;;
21624;SDS011;10974;51.034;3.744;2023-04-02T10:55:36;4.77;;;4.30;;
21624;SDS011;10974;51.034;3.744;2023-04-02T10:58:07;7.93;;;4.20;;
21624;SDS011;10974;51.034;3.744;2023-04-02T11:00:38;6.03;;;4.03;;
21624;SDS011;10974;51.034;3.744;2023-04-02T11:03:06;7.53;;;4.60;;
21624;SDS011;10974;51.034;3.744;2023-04-02T11:05:49;8.97;;;4.67;;
21624;SDS011;10974;51.034;3.744;2023-04-02T11:10:47;7.83;;;4.37;;
21624;SDS011;10974;51.034;3.744;2023-04-02T11:13:24;4.87;;;3.60;;
21624;SDS011;10974;51.034;3.744;2023-04-02T11:15:52;7.53;;;3.90;;
21624;SDS011;10974;51.034;3.744;2023-04-02T11:18:29;6.43;;;4.37;;
21624;SDS011;10974;51.034;3.744;2023-04-02T11:21:07;7.00;;;4.03;;
21624;SDS011;10974;51.034;3.744;2023-04-02T11:23:56;5.93;;;3.60;;
21624;SDS011;10974;51.034;3.744;2023-04-02T11:26:27;5.70;;;4.03;;
21624;SDS011;10974;51.034;3.744;2023-04-02T11:29:02;5.40;;;4.00;;
21624;SDS011;10974;51.034;3.744;2023-04-02T11:31:29;10.90;;;6.00;;
21624;SDS011;10974;51.034;3.744;2023-04-02T11:33:55;12.90;;;7.63;;
21624;SDS011;10974;51.034;3.744;2023-04-02T11:39:08;10.60;;;4.70;;
21624;SDS011;10974;51.034;3.744;2023-04-02T11:44:33;5.60;;;3.50;;
21624;SDS011;10974;51.034;3.744;2023-04-02T11:47:18;4.83;;;3.40;;
21624;SDS011;10974;51.034;3.744;2023-04-02T11:52:26;7.23;;;3.27;;
21624;SDS011;10974;51.034;3.744;2023-04-02T11:54:55;4.40;;;3.20;;
21624;SDS011;10974;51.034;3.744;2023-04-02T12:05:47;6.00;;;3.60;;
21624;SDS011;10974;51.034;3.744;2023-04-02T12:08:20;4.80;;;3.67;;
21624;SDS011;10974;51.034;3.744;2023-04-02T12:10:58;5.10;;;4.00;;
21624;SDS011;10974;51.034;3.744;2023-04-02T12:16:06;7.57;;;3.90;;
21624;SDS011;10974;51.034;3.744;2023-04-02T12:18:33;5.97;;;4.43;;
21624;SDS011;10974;51.034;3.744;2023-04-02T12:21:00;4.10;;;3.50;;
21624;SDS011;10974;51.034;3.744;2023-04-02T12:23:27;6.00;;;3.97;;
21624;SDS011;10974;51.034;3.744;2023-04-02T12:28:24;6.47;;;4.03;;
21624;SDS011;10974;51.034;3.744;2023-04-02T12:31:00;9.47;;;4.30;;
21624;SDS011;10974;51.034;3.744;2023-04-02T12:33:28;5.80;;;3.50;;
21624;SDS011;10974;51.034;3.744;2023-04-02T12:36:00;5.20;;;3.80;;
21624;SDS011;10974;51.034;3.744;2023-04-02T12:38:27;4.93;;;4.40;;
21624;SDS011;10974;51.034;3.744;2023-04-02T12:40:58;4.53;;;3.77;;
21624;SDS011;10974;51.034;3.744;2023-04-02T12:45:54;4.50;;;4.00;;
21624;SDS011;10974;51.034;3.744;2023-04-02T12:48:20;6.60;;;3.40;;
21624;SDS011;10974;51.034;3.744;2023-04-02T12:50:47;6.10;;;3.93;;
21624;SDS011;10974;51.034;3.744;2023-04-02T12:53:20;3.30;;;3.00;;
21624;SDS011;10974;51.034;3.744;2023-04-02T12:55:48;3.50;;;3.20;;
21624;SDS011;10974;51.034;3.744;2023-04-02T12:58:24;5.17;;;3.33;;
21624;SDS011;10974;51.034;3.744;2023-04-02T13:00:51;3.80;;;3.50;;
21624;SDS011;10974;51.034;3.744;2023-04-02T13:03:18;4.20;;;3.23;;
21624;SDS011;10974;51.034;3.744;2023-04-02T13:11:12;3.90;;;3.53;;
21624;SDS011;10974;51.034;3.744;2023-04-02T13:13:39;4.83;;;3.70;;
21624;SDS011;10974;51.034;3.744;2023-04-02T13:18:33;4.70;;;3.43;;
21624;SDS011;10974;51.034;3.744;2023-04-02T13:23:43;4.10;;;3.17;;
21624;SDS011;10974;51.034;3.744;2023-04-02T13:26:17;5.27;;;3.73;;
21624;SDS011;10974;51.034;3.744;2023-04-02T13:31:49;5.10;;;3.00;;
21624;SDS011;10974;51.034;3.744;2023-04-02T13:34:15;6.60;;;4.20;;
21624;SDS011;10974;51.034;3.744;2023-04-02T13:36:42;3.90;;;3.30;;
21624;SDS011;10974;51.034;3.744;2023-04-02T13:39:08;8.93;;;4.70;;
21624;SDS011;10974;51.034;3.744;2023-04-02T13:41:42;6.27;;;4.50;;
21624;SDS011;10974;51.034;3.744;2023-04-02T13:44:18;6.10;;;4.63;;
21624;SDS011;10974;51.034;3.744;2023-04-02T13:46:45;7.83;;;3.73;;
21624;SDS011;10974;51.034;3.744;2023-04-02T13:49:11;4.40;;;3.90;;
21624;SDS011;10974;51.034;3.744;2023-04-02T13:51:41;4.03;;;3.70;;
21624;SDS011;10974;51.034;3.744;2023-04-02T13:54:23;5.23;;;3.87;;
21624;SDS011;10974;51.034;3.744;2023-04-02T13:56:50;4.07;;;3.77;;
21624;SDS011;10974;51.034;3.744;2023-04-02T13:59:16;6.03;;;4.43;;
21624;SDS011;10974;51.034;3.744;2023-04-02T14:01:43;4.53;;;3.60;;
21624;SDS011;10974;51.034;3.744;2023-04-02T14:04:12;4.47;;;3.63;;
21624;SDS011;10974;51.034;3.744;2023-04-02T14:24:43;4.50;;;3.80;;
21624;SDS011;10974;51.034;3.744;2023-04-02T14:27:17;3.80;;;3.50;;
21624;SDS011;10974;51.034;3.744;2023-04-02T14:29:57;6.63;;;4.33;;
21624;SDS011;10974;51.034;3.744;2023-04-02T14:42:57;3.83;;;3.30;;
21624;SDS011;10974;51.034;3.744;2023-04-02T14:47:54;6.13;;;3.27;;
21624;SDS011;10974;51.034;3.744;2023-04-02T14:50:23;3.87;;;3.13;;
21624;SDS011;10974;51.034;3.744;2023-04-02T14:52:52;5.90;;;3.50;;
21624;SDS011;10974;51.034;3.744;2023-04-02T14:57:50;2.80;;;2.57;;
21624;SDS011;10974;51.034;3.744;2023-04-02T15:05:27;3.13;;;2.70;;
21624;SDS011;10974;51.034;3.744;2023-04-02T15:08:20;3.63;;;3.00;;
21624;SDS011;10974;51.034;3.744;2023-04-02T15:13:17;2.90;;;2.60;;
21624;SDS011;10974;51.034;3.744;2023-04-02T15:15:48;3.73;;;2.90;;
21624;SDS011;10974;51.034;3.744;2023-04-02T15:18:16;3.87;;;3.17;;
21624;SDS011;10974;51.034;3.744;2023-04-02T15:21:07;3.10;;;2.90;;
21624;SDS011;10974;51.034;3.744;2023-04-02T15:26:00;5.23;;;3.00;;
21624;SDS011;10974;51.034;3.744;2023-04-02T15:29:33;3.43;;;2.93;;
21624;SDS011;10974;51.034;3.744;2023-04-02T15:31:22;3.70;;;3.40;;
21624;SDS011;10974;51.034;3.744;2023-04-02T15:36:59;3.10;;;2.70;;
21624;SDS011;10974;51.034;3.744;2023-04-02T15:41:52;2.80;;;2.60;;
21624;SDS011;10974;51.034;3.744;2023-04-02T15:44:21;3.17;;;2.70;;
21624;SDS011;10974;51.034;3.744;2023-04-02T15:46:53;4.80;;;4.17;;
21624;SDS011;10974;51.034;3.744;2023-04-02T15:52:04;5.30;;;4.20;;
21624;SDS011;10974;51.034;3.744;2023-04-02T16:01:58;2.60;;;2.40;;
21624;SDS011;10974;51.034;3.744;2023-04-02T16:12:19;2.73;;;2.53;;
21624;SDS011;10974;51.034;3.744;2023-04-02T16:14:46;2.60;;;2.40;;
21624;SDS011;10974;51.034;3.744;2023-04-02T16:17:23;4.63;;;3.50;;
21624;SDS011;10974;51.034;3.744;2023-04-02T16:19:50;3.73;;;2.40;;
21624;SDS011;10974;51.034;3.744;2023-04-02T16:22:28;4.13;;;2.53;;
21624;SDS011;10974;51.034;3.744;2023-04-02T16:24:59;4.73;;;2.20;;
21624;SDS011;10974;51.034;3.744;2023-04-02T16:27:28;3.90;;;2.57;;
21624;SDS011;10974;51.034;3.744;2023-04-02T16:32:38;4.80;;;3.30;;
21624;SDS011;10974;51.034;3.744;2023-04-02T16:40:40;4.60;;;2.27;;
21624;SDS011;10974;51.034;3.744;2023-04-02T16:43:13;4.83;;;3.70;;
21624;SDS011;10974;51.034;3.744;2023-04-02T16:48:34;4.57;;;2.50;;
21624;SDS011;10974;51.034;3.744;2023-04-02T16:53:49;3.90;;;2.43;;
21624;SDS011;10974;51.034;3.744;2023-04-02T16:59:02;2.73;;;2.30;;
21624;SDS011;10974;51.034;3.744;2023-04-02T17:01:47;3.80;;;2.40;;
21624;SDS011;10974;51.034;3.744;2023-04-02T17:07:14;4.67;;;2.57;;
21624;SDS011;10974;51.034;3.744;2023-04-02T17:09:50;3.17;;;2.50;;
21624;SDS011;10974;51.034;3.744;2023-04-02T17:12:21;4.10;;;3.50;;
21624;SDS011;10974;51.034;3.744;2023-04-02T17:14:51;3.50;;;2.93;;
21624;SDS011;10974;51.034;3.744;2023-04-02T17:17:19;3.67;;;2.70;;
21624;SDS011;10974;51.034;3.744;2023-04-02T17:19:45;3.70;;;2.60;;
21624;SDS011;10974;51.034;3.744;2023-04-02T17:22:14;2.70;;;2.50;;
21624;SDS011;10974;51.034;3.744;2023-04-02T17:24:43;2.70;;;2.50;;
21624;SDS011;10974;51.034;3.744;2023-04-02T17:29:40;3.83;;;2.70;;
21624;SDS011;10974;51.034;3.744;2023-04-02T17:32:15;3.37;;;2.73;;
21624;SDS011;10974;51.034;3.744;2023-04-02T17:34:42;4.63;;;2.83;;
21624;SDS011;10974;51.034;3.744;2023-04-02T17:55:20;5.73;;;3.97;;
21624;SDS011;10974;51.034;3.744;2023-04-02T17:57:55;5.20;;;4.20;;
21624;SDS011;10974;51.034;3.744;2023-04-02T18:05:53;6.00;;;3.60;;
21624;SDS011;10974;51.034;3.744;2023-04-02T18:08:22;4.90;;;3.90;;
21624;SDS011;10974;51.034;3.744;2023-04-02T18:15:56;6.17;;;4.90;;
21624;SDS011;10974;51.034;3.744;2023-04-02T18:36:22;6.23;;;4.10;;
21624;SDS011;10974;51.034;3.744;2023-04-02T18:39:05;6.00;;;4.77;;
21624;SDS011;10974;51.034;3.744;2023-04-02T18:46:42;6.17;;;5.10;;
21624;SDS011;10974;51.034;3.744;2023-04-02T18:49:19;6.63;;;5.53;;
21624;SDS011;10974;51.034;3.744;2023-04-02T18:51:49;6.93;;;5.60;;
21624;SDS011;10974;51.034;3.744;2023-04-02T18:54:19;5.60;;;5.00;;
21624;SDS011;10974;51.034;3.744;2023-04-02T18:56:47;5.97;;;5.37;;
21624;SDS011;10974;51.034;3.744;2023-04-02T19:01:59;7.50;;;5.57;;
21624;SDS011;10974;51.034;3.744;2023-04-02T19:04:29;7.10;;;6.10;;
21624;SDS011;10974;51.034;3.744;2023-04-02T19:07:03;6.23;;;5.63;;
21624;SDS011;10974;51.034;3.744;2023-04-02T19:09:31;6.00;;;5.43;;
21624;SDS011;10974;51.034;3.744;2023-04-02T19:11:59;6.50;;;5.77;;
21624;SDS011;10974;51.034;3.744;2023-04-02T19:14:25;7.87;;;6.37;;
21624;SDS011;10974;51.034;3.744;2023-04-02T19:19:18;7.90;;;7.10;;
21624;SDS011;10974;51.034;3.744;2023-04-02T19:27:06;8.43;;;7.50;;
21624;SDS011;10974;51.034;3.744;2023-04-02T19:34:56;10.67;;;7.90;;
21624;SDS011;10974;51.034;3.744;2023-04-02T19:37:30;11.13;;;8.00;;
21624;SDS011;10974;51.034;3.744;2023-04-02T19:40:09;9.80;;;8.37;;
21624;SDS011;10974;51.034;3.744;2023-04-02T19:45:49;12.73;;;9.33;;
21624;SDS011;10974;51.034;3.744;2023-04-02T19:47:57;13.37;;;9.20;;
21624;SDS011;10974;51.034;3.744;2023-04-02T19:50:24;11.27;;;8.33;;
21624;SDS011;10974;51.034;3.744;2023-04-02T19:52:50;11.40;;;8.20;;
21624;SDS011;10974;51.034;3.744;2023-04-02T19:55:16;11.43;;;8.40;;
21624;SDS011;10974;51.034;3.744;2023-04-02T19:57:42;9.30;;;7.80;;
21624;SDS011;10974;51.034;3.744;2023-04-02T20:00:10;11.80;;;8.60;;
21624;SDS011;10974;51.034;3.744;2023-04-02T20:02:36;10.20;;;7.90;;
21624;SDS011;10974;51.034;3.744;2023-04-02T20:05:02;15.20;;;8.50;;
21624;SDS011;10974;51.034;3.744;2023-04-02T20:07:29;11.53;;;8.83;;
21624;SDS011;10974;51.034;3.744;2023-04-02T20:09:55;13.60;;;8.30;;
21624;SDS011;10974;51.034;3.744;2023-04-02T20:12:21;10.00;;;8.10;;
21624;SDS011;10974;51.034;3.744;2023-04-02T20:14:47;11.53;;;8.20;;
21624;SDS011;10974;51.034;3.744;2023-04-02T20:17:14;10.00;;;8.10;;
21624;SDS011;10974;51.034;3.744;2023-04-02T20:19:40;9.73;;;7.70;;
21624;SDS011;10974;51.034;3.744;2023-04-02T20:22:06;10.70;;;7.93;;
21624;SDS011;10974;51.034;3.744;2023-04-02T20:24:32;9.67;;;7.73;;
21624;SDS011;10974;51.034;3.744;2023-04-02T20:26:58;11.30;;;8.67;;
21624;SDS011;10974;51.034;3.744;2023-04-02T20:29:24;12.80;;;7.43;;
21624;SDS011;10974;51.034;3.744;2023-04-02T20:31:52;11.57;;;8.30;;
21624;SDS011;10974;51.034;3.744;2023-04-02T20:34:18;10.60;;;7.87;;
21624;SDS011;10974;51.034;3.744;2023-04-02T20:36:44;10.27;;;7.97;;
21624;SDS011;10974;51.034;3.744;2023-04-02T20:39:10;15.27;;;9.27;;
21624;SDS011;10974;51.034;3.744;2023-04-02T20:41:43;11.53;;;8.73;;
21624;SDS011;10974;51.034;3.744;2023-04-02T20:44:09;16.07;;;8.80;;
21624;SDS011;10974;51.034;3.744;2023-04-02T20:46:36;11.30;;;9.10;;
21624;SDS011;10974;51.034;3.744;2023-04-02T20:49:02;11.53;;;8.60;;
21624;SDS011;10974;51.034;3.744;2023-04-02T20:51:28;11.10;;;8.57;;
21624;SDS011;10974;51.034;3.744;2023-04-02T20:53:54;12.53;;;8.90;;
21624;SDS011;10974;51.034;3.744;2023-04-02T20:56:21;11.83;;;8.57;;
21624;SDS011;10974;51.034;3.744;2023-04-02T20:58:50;12.00;;;8.40;;
21624;SDS011;10974;51.034;3.744;2023-04-02T21:01:17;9.00;;;7.90;;
21624;SDS011;10974;51.034;3.744;2023-04-02T21:03:44;14.27;;;9.13;;
21624;SDS011;10974;51.034;3.744;2023-04-02T21:06:14;12.97;;;9.60;;
21624;SDS011;10974;51.034;3.744;2023-04-02T21:08:41;12.00;;;9.07;;
21624;SDS011;10974;51.034;3.744;2023-04-02T21:11:07;14.97;;;9.40;;
21624;SDS011;10974;51.034;3.744;2023-04-02T21:13:33;12.40;;;9.27;;
21624;SDS011;10974;51.034;3.744;2023-04-02T21:16:04;13.20;;;10.53;;
21624;SDS011;10974;51.034;3.744;2023-04-02T21:18:30;13.70;;;10.00;;
21624;SDS011;10974;51.034;3.744;2023-04-02T21:21:06;13.47;;;9.73;;
21624;SDS011;10974;51.034;3.744;2023-04-02T21:23:32;11.40;;;9.20;;
21624;SDS011;10974;51.034;3.744;2023-04-02T21:26:02;12.63;;;8.83;;
21624;SDS011;10974;51.034;3.744;2023-04-02T21:28:30;12.07;;;8.97;;
21624;SDS011;10974;51.034;3.744;2023-04-02T21:31:03;13.60;;;10.23;;
21624;SDS011;10974;51.034;3.744;2023-04-02T21:33:30;11.87;;;9.37;;
21624;SDS011;10974;51.034;3.744;2023-04-02T21:36:10;12.83;;;8.63;;
21624;SDS011;10974;51.034;3.744;2023-04-02T21:38:40;13.07;;;9.50;;
21624;SDS011;10974;51.034;3.744;2023-04-02T21:43:36;16.30;;;10.43;;
21624;SDS011;10974;51.034;3.744;2023-04-02T21:46:02;13.77;;;10.23;;
21624;SDS011;10974;51.034;3.744;2023-04-02T21:48:29;11.50;;;9.37;;
21624;SDS011;10974;51.034;3.744;2023-04-02T21:51:03;13.83;;;11.00;;
21624;SDS011;10974;51.034;3.744;2023-04-02T21:53:29;13.30;;;10.37;;
21624;SDS011;10974;51.034;3.744;2023-04-02T21:56:02;13.50;;;10.43;;
21624;SDS011;10974;51.034;3.744;2023-04-02T21:58:29;15.27;;;9.73;;
21624;SDS011;10974;51.034;3.744;2023-04-02T22:00:55;15.37;;;10.27;;
21624;SDS011;10974;51.034;3.744;2023-04-02T22:03:21;14.83;;;10.30;;
21624;SDS011;10974;51.034;3.744;2023-04-02T22:05:47;13.27;;;10.67;;
21624;SDS011;10974;51.034;3.744;2023-04-02T22:08:13;15.40;;;10.33;;
21624;SDS011;10974;51.034;3.744;2023-04-02T22:10:39;15.70;;;10.50;;
21624;SDS011;10974;51.034;3.744;2023-04-02T22:13:05;15.47;;;11.07;;
21624;SDS011;10974;51.034;3.744;2023-04-02T22:15:31;13.17;;;10.00;;
